This is the latest recevied weather packets stored in our database for station/object K7CTM. If no packets are shown the sender has not sent any weather packets the latest 10 day(s).
| Time | Temp. | Humidity | Pressure | Rain* | Wind** | Luminosity | Snow |
|---|---|---|---|---|---|---|---|
| 1777918451 | 11.11° C | 42% | 1024.5 hPa | 0 mm | - | 358 W/m² | - |
| 1777918150 | 11.67° C | 42% | 1024.7 hPa | 0 mm | - | 340 W/m² | - |
| 1777917848 | 11.67° C | 44% | 1024.8 hPa | 0 mm | - | 393 W/m² | - |
| 1777917546 | 11.67° C | 43% | 1024.8 hPa | 0 mm | - | 387 W/m² | - |
| 1777917243 | 11.67° C | 42% | 1024.8 hPa | 0 mm | - | 430 W/m² | - |
| 1777916941 | 11.67° C | 43% | 1024.8 hPa | 0 mm | - | 459 W/m² | - |
| 1777916638 | 11.67° C | 43% | 1024.8 hPa | 0 mm | - | 422 W/m² | - |
| 1777916335 | 12.22° C | 42% | 1024.7 hPa | 0 mm | - | 503 W/m² | - |
| 1777916031 | 11.67° C | 44% | 1024.7 hPa | 0 mm | - | 482 W/m² | - |
| 1777915729 | 10.56° C | 45% | 1024.8 hPa | 0 mm | - | 606 W/m² | - |
| 1777915425 | 11.67° C | 42% | 1024.8 hPa | 0 mm | - | 648 W/m² | - |
| 1777915121 | 11.11° C | 44% | 1024.8 hPa | 0 mm | - | 737 W/m² | - |
| 1777914818 | 11.11° C | 45% | 1024.9 hPa | 0 mm | - | 459 W/m² | - |
| 1777914516 | 10.56° C | 48% | 1024.8 hPa | 0 mm | - | 391 W/m² | - |
| 1777914212 | 10.56° C | 49% | 1025.2 hPa | 0 mm | - | 421 W/m² | - |
| 1777913909 | 10° C | 48% | 1025 hPa | 0 mm | - | 456 W/m² | - |
| 1777913605 | 10° C | 47% | 1025.2 hPa | 0 mm | - | 639 W/m² | - |
| 1777913302 | 10° C | 48% | 1025.3 hPa | 0 mm | - | 379 W/m² | - |
| 1777912999 | 10° C | 48% | 1025 hPa | 0 mm | - | 475 W/m² | - |
| 1777912695 | 10° C | 50% | 1025.2 hPa | 0 mm | - | 415 W/m² | - |
| 1777912391 | 10° C | 50% | 1025.3 hPa | 0 mm | - | 328 W/m² | - |
| 1777912087 | 9.44° C | 50% | 1025.4 hPa | 0 mm | - | 281 W/m² | - |
| 1777911783 | 9.44° C | 52% | 1025.4 hPa | 0 mm | - | 226 W/m² | - |
| 1777911480 | 9.44° C | 51% | 1025.5 hPa | 0 mm | - | 193 W/m² | - |
| 1777911177 | 9.44° C | 50% | 1025.4 hPa | 0 mm | - | 192 W/m² | - |
* Rain latest hour (hover to see other rain measurements)
** Current wind speed in m/s (hover to see current wind gust speed)